sensor_id;sensor_type;location;lat;lon;timestamp;temperature;humidity
37322;DHT22;23697;48.684;9.032;2022-07-29T00:02:02;19.30;83.40
37322;DHT22;23697;48.684;9.032;2022-07-29T00:04:29;19.20;83.30
37322;DHT22;23697;48.684;9.032;2022-07-29T00:06:56;19.30;83.20
37322;DHT22;23697;48.684;9.032;2022-07-29T00:09:22;19.20;83.40
37322;DHT22;23697;48.684;9.032;2022-07-29T00:11:51;19.10;83.40
37322;DHT22;23697;48.684;9.032;2022-07-29T00:14:18;19.10;83.30
37322;DHT22;23697;48.684;9.032;2022-07-29T00:16:45;19.10;83.10
37322;DHT22;23697;48.684;9.032;2022-07-29T00:19:12;19.10;83.30
37322;DHT22;23697;48.684;9.032;2022-07-29T00:21:39;19.00;83.60
37322;DHT22;23697;48.684;9.032;2022-07-29T00:24:06;18.90;83.70
37322;DHT22;23697;48.684;9.032;2022-07-29T00:26:33;18.90;84.00
37322;DHT22;23697;48.684;9.032;2022-07-29T00:29:03;18.80;84.20
37322;DHT22;23697;48.684;9.032;2022-07-29T00:31:30;18.80;84.20
37322;DHT22;23697;48.684;9.032;2022-07-29T00:33:57;18.70;84.30
37322;DHT22;23697;48.684;9.032;2022-07-29T00:36:23;18.70;84.40
37322;DHT22;23697;48.684;9.032;2022-07-29T00:38:50;18.70;84.50
37322;DHT22;23697;48.684;9.032;2022-07-29T00:41:18;18.70;84.60
37322;DHT22;23697;48.684;9.032;2022-07-29T00:43:45;18.60;84.40
37322;DHT22;23697;48.684;9.032;2022-07-29T00:46:13;18.70;84.30
37322;DHT22;23697;48.684;9.032;2022-07-29T00:48:40;18.60;84.30
37322;DHT22;23697;48.684;9.032;2022-07-29T00:51:07;18.60;84.30
37322;DHT22;23697;48.684;9.032;2022-07-29T00:53:35;18.60;84.30
37322;DHT22;23697;48.684;9.032;2022-07-29T00:56:03;18.60;84.30
37322;DHT22;23697;48.684;9.032;2022-07-29T00:58:31;18.60;84.10
37322;DHT22;23697;48.684;9.032;2022-07-29T01:00:58;18.60;84.20
37322;DHT22;23697;48.684;9.032;2022-07-29T01:03:26;18.60;84.20
37322;DHT22;23697;48.684;9.032;2022-07-29T01:05:54;18.60;84.10
37322;DHT22;23697;48.684;9.032;2022-07-29T01:08:21;18.60;83.90
37322;DHT22;23697;48.684;9.032;2022-07-29T01:10:50;18.60;83.80
37322;DHT22;23697;48.684;9.032;2022-07-29T01:13:18;18.60;83.60
37322;DHT22;23697;48.684;9.032;2022-07-29T01:15:49;18.60;83.60
37322;DHT22;23697;48.684;9.032;2022-07-29T01:18:20;18.60;83.30
37322;DHT22;23697;48.684;9.032;2022-07-29T01:21:09;18.50;83.40
37322;DHT22;23697;48.684;9.032;2022-07-29T01:26:45;18.40;83.40
37322;DHT22;23697;48.684;9.032;2022-07-29T01:29:27;18.40;83.60
37322;DHT22;23697;48.684;9.032;2022-07-29T01:31:57;18.40;83.50
37322;DHT22;23697;48.684;9.032;2022-07-29T01:34:31;18.40;83.70
37322;DHT22;23697;48.684;9.032;2022-07-29T01:37:06;18.40;83.80
37322;DHT22;23697;48.684;9.032;2022-07-29T01:39:36;18.40;83.80
37322;DHT22;23697;48.684;9.032;2022-07-29T01:42:08;18.40;83.60
37322;DHT22;23697;48.684;9.032;2022-07-29T01:44:44;18.40;83.60
37322;DHT22;23697;48.684;9.032;2022-07-29T01:47:17;18.40;83.50
37322;DHT22;23697;48.684;9.032;2022-07-29T01:49:49;18.30;83.60
37322;DHT22;23697;48.684;9.032;2022-07-29T01:52:21;18.30;83.70
37322;DHT22;23697;48.684;9.032;2022-07-29T01:54:53;18.20;83.80
37322;DHT22;23697;48.684;9.032;2022-07-29T01:57:26;18.20;83.70
37322;DHT22;23697;48.684;9.032;2022-07-29T01:59:57;18.10;83.80
37322;DHT22;23697;48.684;9.032;2022-07-29T02:02:26;18.10;84.00
37322;DHT22;23697;48.684;9.032;2022-07-29T02:04:54;18.10;83.80
37322;DHT22;23697;48.684;9.032;2022-07-29T02:07:23;18.10;83.90
37322;DHT22;23697;48.684;9.032;2022-07-29T02:09:52;18.10;83.90
37322;DHT22;23697;48.684;9.032;2022-07-29T02:12:20;18.10;83.90
37322;DHT22;23697;48.684;9.032;2022-07-29T02:14:50;18.10;84.00
37322;DHT22;23697;48.684;9.032;2022-07-29T02:17:23;18.10;84.00
37322;DHT22;23697;48.684;9.032;2022-07-29T02:19:52;18.10;84.10
37322;DHT22;23697;48.684;9.032;2022-07-29T02:22:21;18.10;84.20
37322;DHT22;23697;48.684;9.032;2022-07-29T02:24:49;18.10;84.20
37322;DHT22;23697;48.684;9.032;2022-07-29T02:27:19;18.10;84.10
37322;DHT22;23697;48.684;9.032;2022-07-29T02:29:47;18.10;84.10
37322;DHT22;23697;48.684;9.032;2022-07-29T02:32:16;18.10;84.10
37322;DHT22;23697;48.684;9.032;2022-07-29T02:34:46;18.10;84.30
37322;DHT22;23697;48.684;9.032;2022-07-29T02:37:15;18.10;84.10
37322;DHT22;23697;48.684;9.032;2022-07-29T02:39:44;18.10;84.20
37322;DHT22;23697;48.684;9.032;2022-07-29T02:42:13;18.00;84.40
37322;DHT22;23697;48.684;9.032;2022-07-29T02:44:41;18.00;84.30
37322;DHT22;23697;48.684;9.032;2022-07-29T02:47:13;17.90;84.50
37322;DHT22;23697;48.684;9.032;2022-07-29T02:49:47;18.00;84.50
37322;DHT22;23697;48.684;9.032;2022-07-29T02:52:21;18.00;84.60
37322;DHT22;23697;48.684;9.032;2022-07-29T02:54:53;17.90;84.60
37322;DHT22;23697;48.684;9.032;2022-07-29T02:57:26;17.90;84.30
37322;DHT22;23697;48.684;9.032;2022-07-29T02:59:57;17.90;84.30
37322;DHT22;23697;48.684;9.032;2022-07-29T03:02:25;17.90;84.20
37322;DHT22;23697;48.684;9.032;2022-07-29T03:04:55;17.90;84.40
37322;DHT22;23697;48.684;9.032;2022-07-29T03:07:23;17.90;84.40
37322;DHT22;23697;48.684;9.032;2022-07-29T03:09:51;17.90;84.30
37322;DHT22;23697;48.684;9.032;2022-07-29T03:12:18;17.90;84.30
37322;DHT22;23697;48.684;9.032;2022-07-29T03:14:46;17.90;84.20
37322;DHT22;23697;48.684;9.032;2022-07-29T03:17:14;17.90;84.20
37322;DHT22;23697;48.684;9.032;2022-07-29T03:19:42;17.80;84.50
37322;DHT22;23697;48.684;9.032;2022-07-29T03:22:10;17.70;84.80
37322;DHT22;23697;48.684;9.032;2022-07-29T03:24:37;17.70;85.00
37322;DHT22;23697;48.684;9.032;2022-07-29T03:27:04;17.70;84.90
37322;DHT22;23697;48.684;9.032;2022-07-29T03:29:32;17.70;84.90
37322;DHT22;23697;48.684;9.032;2022-07-29T03:31:59;17.70;85.00
37322;DHT22;23697;48.684;9.032;2022-07-29T03:34:28;17.60;85.10
37322;DHT22;23697;48.684;9.032;2022-07-29T03:36:54;17.60;85.10
37322;DHT22;23697;48.684;9.032;2022-07-29T03:39:25;17.60;85.10
37322;DHT22;23697;48.684;9.032;2022-07-29T03:41:54;17.60;84.80
37322;DHT22;23697;48.684;9.032;2022-07-29T03:44:22;17.60;84.90
37322;DHT22;23697;48.684;9.032;2022-07-29T03:46:51;17.60;85.00
37322;DHT22;23697;48.684;9.032;2022-07-29T03:49:21;17.60;84.80
37322;DHT22;23697;48.684;9.032;2022-07-29T03:51:50;17.60;84.70
37322;DHT22;23697;48.684;9.032;2022-07-29T03:54:17;17.60;84.70
37322;DHT22;23697;48.684;9.032;2022-07-29T03:56:48;17.60;84.60
37322;DHT22;23697;48.684;9.032;2022-07-29T03:59:16;17.60;84.50
37322;DHT22;23697;48.684;9.032;2022-07-29T04:01:45;17.60;84.30
37322;DHT22;23697;48.684;9.032;2022-07-29T04:04:12;17.60;84.20
37322;DHT22;23697;48.684;9.032;2022-07-29T04:06:40;17.60;84.20
37322;DHT22;23697;48.684;9.032;2022-07-29T04:09:07;17.60;84.20
37322;DHT22;23697;48.684;9.032;2022-07-29T04:11:36;17.60;84.20
37322;DHT22;23697;48.684;9.032;2022-07-29T04:14:04;17.60;84.10
37322;DHT22;23697;48.684;9.032;2022-07-29T04:16:31;17.60;84.10
37322;DHT22;23697;48.684;9.032;2022-07-29T04:18:59;17.60;84.10
37322;DHT22;23697;48.684;9.032;2022-07-29T04:21:26;17.60;84.00
37322;DHT22;23697;48.684;9.032;2022-07-29T04:23:53;17.60;84.00
37322;DHT22;23697;48.684;9.032;2022-07-29T04:26:20;17.50;84.10
37322;DHT22;23697;48.684;9.032;2022-07-29T04:28:47;17.50;84.10
37322;DHT22;23697;48.684;9.032;2022-07-29T04:31:15;17.50;84.20
37322;DHT22;23697;48.684;9.032;2022-07-29T04:33:42;17.40;84.20
37322;DHT22;23697;48.684;9.032;2022-07-29T04:36:09;17.40;84.40
37322;DHT22;23697;48.684;9.032;2022-07-29T04:38:37;17.40;84.40
37322;DHT22;23697;48.684;9.032;2022-07-29T04:41:04;17.40;84.70
37322;DHT22;23697;48.684;9.032;2022-07-29T04:43:32;17.40;84.70
37322;DHT22;23697;48.684;9.032;2022-07-29T04:45:59;17.40;84.80
37322;DHT22;23697;48.684;9.032;2022-07-29T04:48:28;17.40;84.90
37322;DHT22;23697;48.684;9.032;2022-07-29T04:50:55;17.40;85.00
37322;DHT22;23697;48.684;9.032;2022-07-29T04:53:22;17.40;84.90
37322;DHT22;23697;48.684;9.032;2022-07-29T04:55:49;17.40;84.90
37322;DHT22;23697;48.684;9.032;2022-07-29T04:58:16;17.50;85.10
37322;DHT22;23697;48.684;9.032;2022-07-29T05:00:43;17.50;85.10
37322;DHT22;23697;48.684;9.032;2022-07-29T05:03:09;17.60;85.20
37322;DHT22;23697;48.684;9.032;2022-07-29T05:05:38;17.60;85.20
37322;DHT22;23697;48.684;9.032;2022-07-29T05:08:05;17.70;85.10
37322;DHT22;23697;48.684;9.032;2022-07-29T05:10:31;17.80;85.00
37322;DHT22;23697;48.684;9.032;2022-07-29T05:13:01;17.90;84.70
37322;DHT22;23697;48.684;9.032;2022-07-29T05:15:27;18.00;84.30
37322;DHT22;23697;48.684;9.032;2022-07-29T05:17:56;18.10;84.30
37322;DHT22;23697;48.684;9.032;2022-07-29T05:20:23;18.10;84.00
37322;DHT22;23697;48.684;9.032;2022-07-29T05:22:55;18.20;83.80
37322;DHT22;23697;48.684;9.032;2022-07-29T05:25:22;18.30;83.80
37322;DHT22;23697;48.684;9.032;2022-07-29T05:27:49;18.40;83.70
37322;DHT22;23697;48.684;9.032;2022-07-29T05:30:16;18.40;83.50
37322;DHT22;23697;48.684;9.032;2022-07-29T05:32:43;18.50;83.40
37322;DHT22;23697;48.684;9.032;2022-07-29T05:35:10;18.60;83.10
37322;DHT22;23697;48.684;9.032;2022-07-29T05:37:37;18.60;82.60
37322;DHT22;23697;48.684;9.032;2022-07-29T05:40:06;18.60;82.70
37322;DHT22;23697;48.684;9.032;2022-07-29T05:42:33;18.70;82.50
37322;DHT22;23697;48.684;9.032;2022-07-29T05:45:01;18.80;82.50
37322;DHT22;23697;48.684;9.032;2022-07-29T05:47:28;18.90;82.40
37322;DHT22;23697;48.684;9.032;2022-07-29T05:49:55;18.90;82.20
37322;DHT22;23697;48.684;9.032;2022-07-29T05:52:22;19.00;81.90
37322;DHT22;23697;48.684;9.032;2022-07-29T05:54:49;19.10;81.90
37322;DHT22;23697;48.684;9.032;2022-07-29T05:57:20;19.10;81.60
37322;DHT22;23697;48.684;9.032;2022-07-29T05:59:48;19.30;81.50
37322;DHT22;23697;48.684;9.032;2022-07-29T06:02:15;19.30;81.60
37322;DHT22;23697;48.684;9.032;2022-07-29T06:04:43;19.40;81.60
37322;DHT22;23697;48.684;9.032;2022-07-29T06:07:10;19.40;81.30
37322;DHT22;23697;48.684;9.032;2022-07-29T06:09:36;19.40;80.90
37322;DHT22;23697;48.684;9.032;2022-07-29T06:12:04;19.60;81.10
37322;DHT22;23697;48.684;9.032;2022-07-29T06:14:32;19.70;81.00
37322;DHT22;23697;48.684;9.032;2022-07-29T06:16:59;19.80;79.70
37322;DHT22;23697;48.684;9.032;2022-07-29T06:19:26;19.80;80.40
37322;DHT22;23697;48.684;9.032;2022-07-29T06:21:53;20.00;80.40
37322;DHT22;23697;48.684;9.032;2022-07-29T06:24:20;20.10;79.70
37322;DHT22;23697;48.684;9.032;2022-07-29T06:26:47;20.20;79.60
37322;DHT22;23697;48.684;9.032;2022-07-29T06:29:14;20.40;79.20
37322;DHT22;23697;48.684;9.032;2022-07-29T06:31:42;20.50;78.50
37322;DHT22;23697;48.684;9.032;2022-07-29T06:34:09;20.60;78.60
37322;DHT22;23697;48.684;9.032;2022-07-29T06:36:36;20.70;78.50
37322;DHT22;23697;48.684;9.032;2022-07-29T06:39:05;20.90;77.70
37322;DHT22;23697;48.684;9.032;2022-07-29T06:41:33;21.00;76.80
37322;DHT22;23697;48.684;9.032;2022-07-29T06:44:00;21.00;77.40
37322;DHT22;23697;48.684;9.032;2022-07-29T06:46:27;21.00;76.60
37322;DHT22;23697;48.684;9.032;2022-07-29T06:48:55;21.00;77.20
37322;DHT22;23697;48.684;9.032;2022-07-29T06:51:22;21.10;77.70
37322;DHT22;23697;48.684;9.032;2022-07-29T06:53:50;21.10;77.00
37322;DHT22;23697;48.684;9.032;2022-07-29T06:56:17;21.20;77.30
37322;DHT22;23697;48.684;9.032;2022-07-29T06:58:44;21.30;76.90
37322;DHT22;23697;48.684;9.032;2022-07-29T07:01:10;21.30;76.60
37322;DHT22;23697;48.684;9.032;2022-07-29T07:03:38;21.50;76.70
37322;DHT22;23697;48.684;9.032;2022-07-29T07:06:06;21.60;76.40
37322;DHT22;23697;48.684;9.032;2022-07-29T07:08:33;21.70;75.60
37322;DHT22;23697;48.684;9.032;2022-07-29T07:11:00;22.00;76.00
37322;DHT22;23697;48.684;9.032;2022-07-29T07:13:27;22.10;75.00
37322;DHT22;23697;48.684;9.032;2022-07-29T07:15:59;22.10;74.20
37322;DHT22;23697;48.684;9.032;2022-07-29T07:18:26;22.10;74.20
37322;DHT22;23697;48.684;9.032;2022-07-29T07:20:54;22.10;74.50
37322;DHT22;23697;48.684;9.032;2022-07-29T07:23:25;22.30;74.20
37322;DHT22;23697;48.684;9.032;2022-07-29T07:25:53;22.20;73.00
37322;DHT22;23697;48.684;9.032;2022-07-29T07:28:20;22.20;73.40
37322;DHT22;23697;48.684;9.032;2022-07-29T07:30:47;22.10;74.00
37322;DHT22;23697;48.684;9.032;2022-07-29T07:33:14;22.10;74.40
37322;DHT22;23697;48.684;9.032;2022-07-29T07:35:41;22.50;74.70
37322;DHT22;23697;48.684;9.032;2022-07-29T07:38:08;22.70;74.00
37322;DHT22;23697;48.684;9.032;2022-07-29T07:40:36;23.10;72.40
37322;DHT22;23697;48.684;9.032;2022-07-29T07:43:03;23.30;71.80
37322;DHT22;23697;48.684;9.032;2022-07-29T07:45:30;23.50;71.80
37322;DHT22;23697;48.684;9.032;2022-07-29T07:47:59;23.50;70.60
37322;DHT22;23697;48.684;9.032;2022-07-29T07:50:26;23.60;69.40
37322;DHT22;23697;48.684;9.032;2022-07-29T07:52:54;23.70;69.70
37322;DHT22;23697;48.684;9.032;2022-07-29T07:55:24;23.70;67.60
37322;DHT22;23697;48.684;9.032;2022-07-29T07:57:52;23.90;68.00
37322;DHT22;23697;48.684;9.032;2022-07-29T08:00:20;23.80;66.90
37322;DHT22;23697;48.684;9.032;2022-07-29T08:02:47;23.80;67.40
37322;DHT22;23697;48.684;9.032;2022-07-29T08:05:15;24.10;68.10
37322;DHT22;23697;48.684;9.032;2022-07-29T08:07:44;24.50;68.40
37322;DHT22;23697;48.684;9.032;2022-07-29T08:10:12;24.70;65.10
37322;DHT22;23697;48.684;9.032;2022-07-29T08:12:39;24.80;65.00
37322;DHT22;23697;48.684;9.032;2022-07-29T08:15:09;24.90;65.10
37322;DHT22;23697;48.684;9.032;2022-07-29T08:17:36;25.10;64.20
37322;DHT22;23697;48.684;9.032;2022-07-29T08:20:03;25.40;62.60
37322;DHT22;23697;48.684;9.032;2022-07-29T08:22:31;25.60;59.50
37322;DHT22;23697;48.684;9.032;2022-07-29T08:24:58;25.50;58.20
37322;DHT22;23697;48.684;9.032;2022-07-29T08:27:25;25.40;60.30
37322;DHT22;23697;48.684;9.032;2022-07-29T08:29:54;25.50;60.50
37322;DHT22;23697;48.684;9.032;2022-07-29T08:32:23;25.30;62.60
37322;DHT22;23697;48.684;9.032;2022-07-29T08:34:50;25.50;61.60
37322;DHT22;23697;48.684;9.032;2022-07-29T08:37:32;25.60;61.70
37322;DHT22;23697;48.684;9.032;2022-07-29T08:40:05;25.70;59.60
37322;DHT22;23697;48.684;9.032;2022-07-29T08:42:57;25.80;59.30
37322;DHT22;23697;48.684;9.032;2022-07-29T08:45:29;25.90;58.20
37322;DHT22;23697;48.684;9.032;2022-07-29T08:47:58;26.10;57.30
37322;DHT22;23697;48.684;9.032;2022-07-29T08:50:25;26.10;56.80
37322;DHT22;23697;48.684;9.032;2022-07-29T08:52:52;26.40;57.00
37322;DHT22;23697;48.684;9.032;2022-07-29T08:55:19;26.20;55.60
37322;DHT22;23697;48.684;9.032;2022-07-29T08:57:46;26.50;55.90
37322;DHT22;23697;48.684;9.032;2022-07-29T09:00:14;26.60;52.30
37322;DHT22;23697;48.684;9.032;2022-07-29T09:02:45;26.80;56.00
37322;DHT22;23697;48.684;9.032;2022-07-29T09:05:13;26.70;53.60
37322;DHT22;23697;48.684;9.032;2022-07-29T09:07:41;27.00;54.10
37322;DHT22;23697;48.684;9.032;2022-07-29T09:10:09;27.10;53.20
37322;DHT22;23697;48.684;9.032;2022-07-29T09:12:36;27.20;52.40
37322;DHT22;23697;48.684;9.032;2022-07-29T09:15:03;27.50;53.70
37322;DHT22;23697;48.684;9.032;2022-07-29T09:17:40;27.60;51.40
37322;DHT22;23697;48.684;9.032;2022-07-29T09:20:13;27.40;51.80
37322;DHT22;23697;48.684;9.032;2022-07-29T09:22:43;27.60;50.10
37322;DHT22;23697;48.684;9.032;2022-07-29T09:25:12;27.60;48.50
37322;DHT22;23697;48.684;9.032;2022-07-29T09:27:39;27.70;50.60
37322;DHT22;23697;48.684;9.032;2022-07-29T09:30:08;28.00;50.10
37322;DHT22;23697;48.684;9.032;2022-07-29T09:32:54;28.10;50.20
37322;DHT22;23697;48.684;9.032;2022-07-29T09:35:24;27.70;49.50
37322;DHT22;23697;48.684;9.032;2022-07-29T09:37:51;27.80;49.30
37322;DHT22;23697;48.684;9.032;2022-07-29T09:40:20;27.70;51.50
37322;DHT22;23697;48.684;9.032;2022-07-29T09:42:48;27.90;50.10
37322;DHT22;23697;48.684;9.032;2022-07-29T09:45:31;27.70;50.70
37322;DHT22;23697;48.684;9.032;2022-07-29T09:48:13;27.70;51.50
37322;DHT22;23697;48.684;9.032;2022-07-29T09:50:43;27.70;50.70
37322;DHT22;23697;48.684;9.032;2022-07-29T09:53:10;27.70;51.70
37322;DHT22;23697;48.684;9.032;2022-07-29T09:55:51;27.80;50.60
37322;DHT22;23697;48.684;9.032;2022-07-29T09:58:20;27.90;50.40
37322;DHT22;23697;48.684;9.032;2022-07-29T10:00:49;28.30;51.40
37322;DHT22;23697;48.684;9.032;2022-07-29T10:03:17;28.60;49.10
37322;DHT22;23697;48.684;9.032;2022-07-29T10:05:46;28.80;48.60
37322;DHT22;23697;48.684;9.032;2022-07-29T10:08:13;29.10;48.40
37322;DHT22;23697;48.684;9.032;2022-07-29T10:10:42;29.20;45.90
37322;DHT22;23697;48.684;9.032;2022-07-29T10:13:10;29.20;45.70
37322;DHT22;23697;48.684;9.032;2022-07-29T10:15:38;29.50;47.00
37322;DHT22;23697;48.684;9.032;2022-07-29T10:18:07;29.70;46.10
37322;DHT22;23697;48.684;9.032;2022-07-29T10:20:35;29.80;44.30
37322;DHT22;23697;48.684;9.032;2022-07-29T10:23:04;29.90;45.00
37322;DHT22;23697;48.684;9.032;2022-07-29T10:25:31;29.90;46.20
37322;DHT22;23697;48.684;9.032;2022-07-29T10:27:58;29.30;45.70
37322;DHT22;23697;48.684;9.032;2022-07-29T10:30:25;29.00;46.60
37322;DHT22;23697;48.684;9.032;2022-07-29T10:33:16;28.60;47.30
37322;DHT22;23697;48.684;9.032;2022-07-29T10:35:53;28.20;48.60
37322;DHT22;23697;48.684;9.032;2022-07-29T10:38:45;27.60;51.30
37322;DHT22;23697;48.684;9.032;2022-07-29T10:44:21;25.70;57.90
37322;DHT22;23697;48.684;9.032;2022-07-29T10:46:49;25.10;59.80
37322;DHT22;23697;48.684;9.032;2022-07-29T10:49:18;24.60;60.10
37322;DHT22;23697;48.684;9.032;2022-07-29T10:52:00;24.10;60.90
37322;DHT22;23697;48.684;9.032;2022-07-29T10:54:46;23.70;63.70
37322;DHT22;23697;48.684;9.032;2022-07-29T10:57:15;23.40;70.80
37322;DHT22;23697;48.684;9.032;2022-07-29T10:59:43;22.90;69.60
37322;DHT22;23697;48.684;9.032;2022-07-29T11:02:45;22.60;73.00
37322;DHT22;23697;48.684;9.032;2022-07-29T11:05:14;22.30;79.20
37322;DHT22;23697;48.684;9.032;2022-07-29T11:10:44;22.10;80.30
37322;DHT22;23697;48.684;9.032;2022-07-29T11:13:11;21.90;79.80
37322;DHT22;23697;48.684;9.032;2022-07-29T11:15:52;22.00;81.10
37322;DHT22;23697;48.684;9.032;2022-07-29T11:18:19;21.80;81.00
37322;DHT22;23697;48.684;9.032;2022-07-29T11:20:48;21.80;81.30
37322;DHT22;23697;48.684;9.032;2022-07-29T11:23:20;21.70;80.60
37322;DHT22;23697;48.684;9.032;2022-07-29T11:26:15;21.40;78.70
37322;DHT22;23697;48.684;9.032;2022-07-29T11:28:54;21.40;80.50
37322;DHT22;23697;48.684;9.032;2022-07-29T11:31:34;21.30;81.50
37322;DHT22;23697;48.684;9.032;2022-07-29T11:34:22;21.20;80.90
37322;DHT22;23697;48.684;9.032;2022-07-29T11:37:15;21.10;82.60
37322;DHT22;23697;48.684;9.032;2022-07-29T11:39:44;21.20;83.00
37322;DHT22;23697;48.684;9.032;2022-07-29T11:42:46;21.30;83.00
37322;DHT22;23697;48.684;9.032;2022-07-29T11:45:26;21.10;79.90
37322;DHT22;23697;48.684;9.032;2022-07-29T11:47:58;21.10;81.70
37322;DHT22;23697;48.684;9.032;2022-07-29T11:50:43;21.10;82.30
37322;DHT22;23697;48.684;9.032;2022-07-29T11:53:12;21.10;81.90
37322;DHT22;23697;48.684;9.032;2022-07-29T11:55:40;21.00;81.40
37322;DHT22;23697;48.684;9.032;2022-07-29T11:58:08;20.90;81.50
37322;DHT22;23697;48.684;9.032;2022-07-29T12:00:37;20.80;82.10
37322;DHT22;23697;48.684;9.032;2022-07-29T12:03:07;20.70;81.90
37322;DHT22;23697;48.684;9.032;2022-07-29T12:05:37;20.60;82.80
37322;DHT22;23697;48.684;9.032;2022-07-29T12:08:09;20.50;82.70
37322;DHT22;23697;48.684;9.032;2022-07-29T12:10:37;20.60;82.80
37322;DHT22;23697;48.684;9.032;2022-07-29T12:13:04;20.80;83.20
37322;DHT22;23697;48.684;9.032;2022-07-29T12:15:32;20.90;83.40
37322;DHT22;23697;48.684;9.032;2022-07-29T12:18:10;21.10;83.70
37322;DHT22;23697;48.684;9.032;2022-07-29T12:20:37;21.40;83.70
37322;DHT22;23697;48.684;9.032;2022-07-29T12:23:05;21.40;82.30
37322;DHT22;23697;48.684;9.032;2022-07-29T12:25:33;21.50;80.60
37322;DHT22;23697;48.684;9.032;2022-07-29T12:28:03;21.40;81.10
37322;DHT22;23697;48.684;9.032;2022-07-29T12:30:40;21.10;78.00
37322;DHT22;23697;48.684;9.032;2022-07-29T12:33:21;21.10;80.10
37322;DHT22;23697;48.684;9.032;2022-07-29T12:35:50;21.10;81.60
37322;DHT22;23697;48.684;9.032;2022-07-29T12:38:18;21.20;80.40
37322;DHT22;23697;48.684;9.032;2022-07-29T12:40:46;21.10;80.00
37322;DHT22;23697;48.684;9.032;2022-07-29T12:43:15;21.10;80.20
37322;DHT22;23697;48.684;9.032;2022-07-29T12:45:45;21.10;80.10
37322;DHT22;23697;48.684;9.032;2022-07-29T12:48:13;21.10;80.70
37322;DHT22;23697;48.684;9.032;2022-07-29T12:50:54;20.90;79.60
37322;DHT22;23697;48.684;9.032;2022-07-29T12:53:21;20.70;78.90
37322;DHT22;23697;48.684;9.032;2022-07-29T12:55:50;20.70;81.10
37322;DHT22;23697;48.684;9.032;2022-07-29T12:58:28;20.70;83.00
37322;DHT22;23697;48.684;9.032;2022-07-29T13:01:03;20.70;83.90
37322;DHT22;23697;48.684;9.032;2022-07-29T13:03:44;20.60;84.30
37322;DHT22;23697;48.684;9.032;2022-07-29T13:06:34;20.60;83.40
37322;DHT22;23697;48.684;9.032;2022-07-29T13:09:08;20.50;82.40
37322;DHT22;23697;48.684;9.032;2022-07-29T13:11:38;20.60;84.40
37322;DHT22;23697;48.684;9.032;2022-07-29T13:14:07;20.40;84.20
37322;DHT22;23697;48.684;9.032;2022-07-29T13:16:36;20.40;84.20
37322;DHT22;23697;48.684;9.032;2022-07-29T13:19:09;20.20;83.80
37322;DHT22;23697;48.684;9.032;2022-07-29T13:21:38;20.20;85.00
37322;DHT22;23697;48.684;9.032;2022-07-29T13:24:06;20.30;85.60
37322;DHT22;23697;48.684;9.032;2022-07-29T13:26:34;20.20;85.60
37322;DHT22;23697;48.684;9.032;2022-07-29T13:29:02;20.20;85.90
37322;DHT22;23697;48.684;9.032;2022-07-29T13:31:29;20.20;86.10
37322;DHT22;23697;48.684;9.032;2022-07-29T13:33:58;20.30;86.50
37322;DHT22;23697;48.684;9.032;2022-07-29T13:36:25;20.30;86.20
37322;DHT22;23697;48.684;9.032;2022-07-29T13:38:52;20.40;86.40
37322;DHT22;23697;48.684;9.032;2022-07-29T13:41:19;20.50;86.60
37322;DHT22;23697;48.684;9.032;2022-07-29T13:43:46;20.60;86.10
37322;DHT22;23697;48.684;9.032;2022-07-29T13:46:13;20.70;86.30
37322;DHT22;23697;48.684;9.032;2022-07-29T13:48:40;20.90;86.40
37322;DHT22;23697;48.684;9.032;2022-07-29T13:51:08;21.10;86.30
37322;DHT22;23697;48.684;9.032;2022-07-29T13:53:35;21.20;86.30
37322;DHT22;23697;48.684;9.032;2022-07-29T13:56:02;21.20;84.60
37322;DHT22;23697;48.684;9.032;2022-07-29T13:58:31;21.30;83.60
37322;DHT22;23697;48.684;9.032;2022-07-29T14:00:59;21.30;83.30
37322;DHT22;23697;48.684;9.032;2022-07-29T14:03:26;21.40;84.30
37322;DHT22;23697;48.684;9.032;2022-07-29T14:05:53;21.70;84.80
37322;DHT22;23697;48.684;9.032;2022-07-29T14:08:23;21.80;84.70
37322;DHT22;23697;48.684;9.032;2022-07-29T14:10:49;22.00;84.40
37322;DHT22;23697;48.684;9.032;2022-07-29T14:13:16;22.10;83.80
37322;DHT22;23697;48.684;9.032;2022-07-29T14:15:43;22.10;83.20
37322;DHT22;23697;48.684;9.032;2022-07-29T14:18:13;22.20;83.40
37322;DHT22;23697;48.684;9.032;2022-07-29T14:20:43;22.20;83.90
37322;DHT22;23697;48.684;9.032;2022-07-29T14:23:12;22.30;83.80
37322;DHT22;23697;48.684;9.032;2022-07-29T14:25:40;22.40;84.10
37322;DHT22;23697;48.684;9.032;2022-07-29T14:28:07;22.30;82.40
37322;DHT22;23697;48.684;9.032;2022-07-29T14:30:34;22.30;83.00
37322;DHT22;23697;48.684;9.032;2022-07-29T14:33:01;22.40;83.60
37322;DHT22;23697;48.684;9.032;2022-07-29T14:35:28;22.60;83.30
37322;DHT22;23697;48.684;9.032;2022-07-29T14:37:55;22.60;82.60
37322;DHT22;23697;48.684;9.032;2022-07-29T14:40:22;22.70;83.00
37322;DHT22;23697;48.684;9.032;2022-07-29T14:42:52;22.80;82.60
37322;DHT22;23697;48.684;9.032;2022-07-29T14:45:19;22.90;83.10
37322;DHT22;23697;48.684;9.032;2022-07-29T14:47:46;22.90;81.50
37322;DHT22;23697;48.684;9.032;2022-07-29T14:50:14;23.00;82.40
37322;DHT22;23697;48.684;9.032;2022-07-29T14:52:41;23.10;81.20
37322;DHT22;23697;48.684;9.032;2022-07-29T14:55:08;23.00;80.90
37322;DHT22;23697;48.684;9.032;2022-07-29T14:57:35;23.10;81.10
37322;DHT22;23697;48.684;9.032;2022-07-29T15:00:05;23.10;82.10
37322;DHT22;23697;48.684;9.032;2022-07-29T15:02:33;23.10;82.80
37322;DHT22;23697;48.684;9.032;2022-07-29T15:05:00;23.20;82.50
37322;DHT22;23697;48.684;9.032;2022-07-29T15:07:27;23.10;82.20
37322;DHT22;23697;48.684;9.032;2022-07-29T15:09:54;23.20;82.30
37322;DHT22;23697;48.684;9.032;2022-07-29T15:12:21;23.20;82.50
37322;DHT22;23697;48.684;9.032;2022-07-29T15:14:48;23.20;82.20
37322;DHT22;23697;48.684;9.032;2022-07-29T15:17:16;23.10;79.70
37322;DHT22;23697;48.684;9.032;2022-07-29T15:19:46;22.90;78.50
37322;DHT22;23697;48.684;9.032;2022-07-29T15:22:16;22.80;78.60
37322;DHT22;23697;48.684;9.032;2022-07-29T15:24:43;22.60;77.20
37322;DHT22;23697;48.684;9.032;2022-07-29T15:27:10;22.60;78.80
37322;DHT22;23697;48.684;9.032;2022-07-29T15:29:39;22.60;78.40
37322;DHT22;23697;48.684;9.032;2022-07-29T15:32:07;22.60;80.00
37322;DHT22;23697;48.684;9.032;2022-07-29T15:34:37;22.60;80.10
37322;DHT22;23697;48.684;9.032;2022-07-29T15:37:04;22.60;80.80
37322;DHT22;23697;48.684;9.032;2022-07-29T15:39:31;22.60;81.20
37322;DHT22;23697;48.684;9.032;2022-07-29T15:41:58;22.60;81.60
37322;DHT22;23697;48.684;9.032;2022-07-29T15:44:25;22.60;81.70
37322;DHT22;23697;48.684;9.032;2022-07-29T15:46:52;22.60;81.50
37322;DHT22;23697;48.684;9.032;2022-07-29T15:49:36;22.60;81.70
37322;DHT22;23697;48.684;9.032;2022-07-29T15:52:05;22.60;81.30
37322;DHT22;23697;48.684;9.032;2022-07-29T15:54:33;22.60;81.60